Time;durP1;ratioP1;P1;durP2;ratioP2;P2;SDS_P1;SDS_P2;PMS_P1;PMS_P2;Temp;Humidity;BMP_temperature;BMP_pressure;BME280_temperature;BME280_humidity;BME280_pressure;Samples;Min_cycle;Max_cycle;Signal;HPM_P1;HPM_P2
2021/12/11 00:02:09;;;;;;;21.88;14.38;;;6.00;62.30;;;;;;6114421;23;20006;-56
2021/12/11 00:04:38;;;;;;;26.02;15.13;;;6.00;62.30;;;;;;6114767;23;20013;-53
2021/12/11 00:07:09;;;;;;;26.05;14.95;;;6.00;62.20;;;;;;6112784;23;20018;-54
2021/12/11 00:10:17;;;;;;;24.40;15.73;;;6.00;62.30;;;;;;6124097;23;20005;-52
2021/12/11 00:12:50;;;;;;;23.95;14.93;;;6.10;62.30;;;;;;6053577;23;20015;-52
2021/12/11 00:15:25;;;;;;;27.87;17.87;;;6.10;62.30;;;;;;6061083;23;20142;-53
2021/12/11 00:18:09;;;;;;;25.35;15.55;;;6.10;62.40;;;;;;6091393;23;20013;-52
2021/12/11 00:20:42;;;;;;;29.25;15.50;;;6.10;62.30;;;;;;6113988;23;20349;-52
2021/12/11 00:23:09;;;;;;;25.08;15.02;;;6.10;62.20;;;;;;6114320;23;20009;-55
2021/12/11 00:25:43;;;;;;;25.02;16.02;;;6.10;62.10;;;;;;6115290;23;20337;-57
2021/12/11 00:28:12;;;;;;;30.13;15.82;;;6.10;62.30;;;;;;6113125;23;20006;-50
2021/12/11 00:30:41;;;;;;;31.40;16.55;;;6.10;62.30;;;;;;6114227;23;20431;-54
2021/12/11 00:33:32;;;;;;;30.58;16.83;;;6.10;62.40;;;;;;6112730;23;20499;-53
2021/12/11 00:35:58;;;;;;;30.00;16.17;;;6.10;62.50;;;;;;6112802;23;20071;-54
2021/12/11 00:38:34;;;;;;;25.23;16.42;;;6.10;62.30;;;;;;6136031;23;20320;-52
2021/12/11 00:41:05;;;;;;;25.45;16.30;;;6.20;62.50;;;;;;6123598;23;20002;-54
2021/12/11 00:43:35;;;;;;;27.50;16.55;;;6.10;62.50;;;;;;6124694;23;20043;-54
2021/12/11 00:46:05;;;;;;;26.13;16.73;;;6.10;62.50;;;;;;6113537;23;20006;-55
2021/12/11 00:48:32;;;;;;;28.00;18.10;;;6.10;62.50;;;;;;6113782;23;20005;-55
2021/12/11 00:51:01;;;;;;;32.95;18.67;;;6.20;62.60;;;;;;6113731;23;20010;-52
2021/12/11 00:53:36;;;;;;;35.40;19.55;;;6.20;62.70;;;;;;6114574;23;20033;-52
2021/12/11 00:56:10;;;;;;;38.83;20.55;;;6.20;62.80;;;;;;6114670;23;20018;-54
2021/12/11 00:58:39;;;;;;;34.22;19.00;;;6.20;62.80;;;;;;6114548;23;20032;-52
2021/12/11 01:01:08;;;;;;;36.78;22.10;;;6.20;62.80;;;;;;6114465;23;20002;-51
2021/12/11 01:03:51;;;;;;;37.85;21.88;;;6.20;62.90;;;;;;6115096;23;20006;-55
2021/12/11 01:06:23;;;;;;;35.63;21.55;;;6.20;63.00;;;;;;6110423;23;20010;-51
2021/12/11 01:08:57;;;;;;;38.80;22.25;;;6.20;62.90;;;;;;6116632;23;20017;-52
2021/12/11 01:11:29;;;;;;;37.38;21.25;;;6.20;62.90;;;;;;6123911;23;20002;-52
2021/12/11 01:14:37;;;;;;;38.78;22.73;;;6.20;62.90;;;;;;6124240;23;20013;-53
2021/12/11 01:17:21;;;;;;;36.85;21.23;;;6.20;63.00;;;;;;6112463;23;20018;-54
2021/12/11 01:19:52;;;;;;;36.73;22.37;;;6.30;62.90;;;;;;6111345;23;20001;-56
2021/12/11 01:22:33;;;;;;;38.55;21.65;;;6.30;62.80;;;;;;6114447;23;20079;-54
2021/12/11 01:25:22;;;;;;;36.85;21.60;;;6.20;62.70;;;;;;6124351;23;19998;-53
2021/12/11 01:27:58;;;;;;;35.80;20.63;;;6.30;62.90;;;;;;6114420;23;20173;-53
2021/12/11 01:30:36;;;;;;;39.47;21.70;;;6.30;62.80;;;;;;6124016;23;20450;-55
2021/12/11 01:33:04;;;;;;;39.95;21.83;;;6.30;62.90;;;;;;6122245;23;20025;-52
2021/12/11 01:35:31;;;;;;;36.25;22.08;;;6.30;62.90;;;;;;6115450;23;20014;-52
2021/12/11 01:38:05;;;;;;;40.70;22.20;;;6.30;62.80;;;;;;6114257;23;20276;-55
2021/12/11 01:40:32;;;;;;;41.88;21.77;;;6.30;62.90;;;;;;6114238;23;20002;-53
2021/12/11 01:43:04;;;;;;;40.10;21.48;;;6.30;62.90;;;;;;6113923;23;20851;-52
2021/12/11 01:45:32;;;;;;;41.95;22.25;;;6.30;62.90;;;;;;6124452;23;20312;-54
2021/12/11 01:47:58;;;;;;;43.53;23.08;;;6.30;62.90;;;;;;6112550;23;20208;-50
2021/12/11 01:50:35;;;;;;;38.30;21.33;;;6.30;62.90;;;;;;6112898;23;20002;-51
2021/12/11 01:53:10;;;;;;;40.30;22.08;;;6.30;63.00;;;;;;6111546;23;19998;-54
2021/12/11 01:55:47;;;;;;;41.10;22.42;;;6.30;63.00;;;;;;6125217;23;20010;-56
2021/12/11 01:58:21;;;;;;;40.58;21.90;;;6.30;63.00;;;;;;6113315;23;19998;-52
2021/12/11 02:00:53;;;;;;;40.80;22.52;;;6.30;63.00;;;;;;6124104;23;20009;-54
2021/12/11 02:03:24;;;;;;;42.28;23.15;;;6.40;63.00;;;;;;6111289;23;20010;-55
2021/12/11 02:05:51;;;;;;;41.95;22.73;;;6.30;62.90;;;;;;6124303;23;20002;-52
2021/12/11 02:08:22;;;;;;;42.25;24.15;;;6.40;62.90;;;;;;6113658;23;20017;-50
2021/12/11 02:10:55;;;;;;;42.67;23.13;;;6.30;62.90;;;;;;6122258;23;20466;-54
2021/12/11 02:13:42;;;;;;;46.50;24.70;;;6.40;63.00;;;;;;6114590;23;20450;-52
2021/12/11 02:16:43;;;;;;;49.60;25.38;;;6.40;63.00;;;;;;6122809;23;20017;-54
2021/12/11 02:19:23;;;;;;;43.45;25.13;;;6.40;63.00;;;;;;6114355;23;20745;-52
2021/12/11 02:22:01;;;;;;;56.17;26.27;;;6.30;62.90;;;;;;6115665;23;20312;-56
2021/12/11 02:24:41;;;;;;;58.08;28.20;;;6.40;63.00;;;;;;6113125;23;20014;-52
2021/12/11 02:27:14;;;;;;;51.72;28.27;;;6.40;63.10;;;;;;6125397;23;20002;-53
2021/12/11 02:29:58;;;;;;;54.60;29.25;;;6.30;63.00;;;;;;6122153;23;20002;-54
2021/12/11 02:32:35;;;;;;;59.55;28.83;;;6.30;63.10;;;;;;6113425;23;20025;-54
2021/12/11 02:35:08;;;;;;;57.40;30.25;;;6.30;63.10;;;;;;6111941;23;20462;-55
2021/12/11 02:37:50;;;;;;;60.88;31.58;;;6.30;63.20;;;;;;6110118;23;20006;-53
2021/12/11 02:40:20;;;;;;;55.40;30.52;;;6.30;63.20;;;;;;6109226;23;20463;-56
2021/12/11 02:43:05;;;;;;;62.97;31.10;;;6.20;63.10;;;;;;6114391;23;20349;-53
2021/12/11 02:45:44;;;;;;;67.45;34.38;;;6.30;63.40;;;;;;6123223;23;20002;-53
2021/12/11 02:48:21;;;;;;;62.67;34.15;;;6.20;63.40;;;;;;6111319;23;20319;-53
2021/12/11 02:51:10;;;;;;;72.85;34.95;;;6.20;63.40;;;;;;6123720;23;20450;-51
2021/12/11 02:54:13;;;;;;;76.10;36.78;;;6.20;63.50;;;;;;6113835;23;20006;-56
2021/12/11 02:56:50;;;;;;;80.82;36.20;;;6.20;63.60;;;;;;6137087;23;20321;-55
2021/12/11 02:59:22;;;;;;;71.25;35.83;;;6.20;63.50;;;;;;6121824;23;19998;-52
2021/12/11 03:02:02;;;;;;;78.20;39.60;;;6.20;63.60;;;;;;6113517;23;20021;-54
2021/12/11 03:04:37;;;;;;;79.35;39.65;;;6.20;63.70;;;;;;6122850;23;20005;-54
2021/12/11 03:07:09;;;;;;;87.38;41.45;;;6.20;63.80;;;;;;6115637;23;20010;-55
2021/12/11 03:09:39;;;;;;;83.20;42.20;;;6.20;63.90;;;;;;6113032;23;20327;-56
2021/12/11 03:12:09;;;;;;;88.78;40.78;;;6.20;63.90;;;;;;6112704;23;20001;-55
2021/12/11 03:14:36;;;;;;;85.20;40.60;;;6.10;64.00;;;;;;6113363;23;20009;-55
2021/12/11 03:17:02;;;;;;;91.00;41.92;;;6.10;64.10;;;;;;6113234;23;19998;-55
2021/12/11 03:19:31;;;;;;;92.63;41.08;;;6.10;64.20;;;;;;6113415;23;20006;-55
2021/12/11 03:22:01;;;;;;;107.93;43.83;;;6.10;64.30;;;;;;6111494;23;20009;-54
2021/12/11 03:24:28;;;;;;;100.68;43.72;;;6.10;64.50;;;;;;6113107;23;20002;-55
2021/12/11 03:26:56;;;;;;;89.03;43.53;;;6.10;64.50;;;;;;6112410;23;20002;-52
2021/12/11 03:29:23;;;;;;;85.20;39.85;;;6.00;64.50;;;;;;6112789;23;20002;-55
2021/12/11 03:31:49;;;;;;;84.10;41.47;;;6.00;64.50;;;;;;6110355;23;20006;-56
2021/12/11 03:34:20;;;;;;;90.80;41.60;;;6.00;64.60;;;;;;6113900;23;20006;-56
2021/12/11 03:36:47;;;;;;;108.15;43.55;;;6.00;64.50;;;;;;6114616;23;20002;-55
2021/12/11 03:39:21;;;;;;;99.90;44.92;;;5.90;64.50;;;;;;6111031;23;20002;-56
2021/12/11 03:41:49;;;;;;;95.72;43.00;;;5.90;64.60;;;;;;6111317;23;20021;-54
2021/12/11 03:44:17;;;;;;;91.78;42.60;;;5.90;64.60;;;;;;6110720;23;20010;-52
2021/12/11 03:46:50;;;;;;;93.15;43.58;;;5.80;64.70;;;;;;6110350;23;20002;-55
2021/12/11 03:49:19;;;;;;;96.70;44.87;;;5.80;64.80;;;;;;6121232;23;19998;-54
2021/12/11 03:51:48;;;;;;;93.95;41.72;;;5.70;64.90;;;;;;6113648;23;20002;-56
2021/12/11 03:54:20;;;;;;;92.63;42.58;;;5.70;64.90;;;;;;6111986;23;20001;-53
2021/12/11 03:56:47;;;;;;;92.07;41.22;;;5.70;65.00;;;;;;6111081;23;20014;-56
2021/12/11 03:59:15;;;;;;;99.53;44.25;;;5.70;65.00;;;;;;6111585;23;20416;-53
2021/12/11 04:01:48;;;;;;;97.40;42.60;;;5.60;65.00;;;;;;6111718;23;20006;-55
2021/12/11 04:04:25;;;;;;;93.72;43.17;;;5.50;65.10;;;;;;6111004;23;20265;-56
2021/12/11 04:06:53;;;;;;;97.60;44.10;;;5.50;65.30;;;;;;6119801;23;20002;-54
2021/12/11 04:09:20;;;;;;;97.53;42.08;;;5.50;65.40;;;;;;6112419;23;20018;-55
2021/12/11 04:11:48;;;;;;;100.03;42.22;;;5.40;65.60;;;;;;6113030;23;20006;-54
2021/12/11 04:14:20;;;;;;;104.68;45.08;;;5.40;65.80;;;;;;6108128;23;20033;-53
2021/12/11 04:16:48;;;;;;;106.95;40.05;;;5.40;65.90;;;;;;6121273;23;20001;-51
2021/12/11 04:19:14;;;;;;;95.32;41.40;;;5.30;66.00;;;;;;6110354;23;19998;-52
2021/12/11 04:21:43;;;;;;;94.90;40.00;;;5.30;66.10;;;;;;6136065;23;20006;-52
2021/12/11 04:24:12;;;;;;;95.30;41.28;;;5.30;66.30;;;;;;6112654;23;20014;-55
2021/12/11 04:26:39;;;;;;;110.00;44.00;;;5.30;66.40;;;;;;6115285;23;20006;-56
2021/12/11 04:29:06;;;;;;;95.60;41.67;;;5.30;66.50;;;;;;6113320;23;20432;-53
2021/12/11 04:31:34;;;;;;;107.40;44.85;;;5.30;66.50;;;;;;6113632;23;20009;-53
2021/12/11 04:34:07;;;;;;;108.28;41.95;;;5.30;66.70;;;;;;6113710;23;19998;-54
2021/12/11 04:36:38;;;;;;;103.25;42.72;;;5.30;66.70;;;;;;6126198;23;20002;-55
2021/12/11 04:39:08;;;;;;;120.95;44.58;;;5.30;66.70;;;;;;6123482;23;19994;-55
2021/12/11 04:41:46;;;;;;;105.00;43.28;;;5.40;66.60;;;;;;6115672;23;20024;-55
2021/12/11 04:44:21;;;;;;;97.25;41.78;;;5.40;66.60;;;;;;6123813;23;20009;-55
2021/12/11 04:46:48;;;;;;;102.28;42.58;;;5.40;66.60;;;;;;6112961;23;20359;-51
2021/12/11 04:49:25;;;;;;;114.68;43.90;;;5.40;66.60;;;;;;6112101;23;20331;-55
2021/12/11 04:52:03;;;;;;;112.32;44.50;;;5.40;66.50;;;;;;6115580;23;20006;-55
2021/12/11 04:57:24;;;;;;;97.72;41.60;;;5.40;66.30;;;;;;6114648;23;20393;-55
2021/12/11 05:07:59;;;;;;;111.35;44.05;;;5.60;66.50;;;;;;6124355;23;20018;-57
2021/12/11 05:10:41;;;;;;;101.72;44.60;;;5.60;66.50;;;;;;6113571;23;20017;-56
2021/12/11 05:13:08;;;;;;;99.15;43.50;;;5.60;66.40;;;;;;6114249;23;20045;-56
2021/12/11 05:15:41;;;;;;;102.80;43.97;;;5.60;66.40;;;;;;6112708;23;20013;-55
2021/12/11 05:18:10;;;;;;;99.03;42.75;;;5.60;66.30;;;;;;6121861;23;20013;-55
2021/12/11 05:20:38;;;;;;;93.63;42.17;;;5.70;66.30;;;;;;6110536;23;20006;-54
2021/12/11 05:23:04;;;;;;;100.68;42.60;;;5.70;66.30;;;;;;6110501;23;20356;-55
2021/12/11 05:25:31;;;;;;;89.07;40.47;;;5.70;66.40;;;;;;6114571;23;20300;-53
2021/12/11 05:27:58;;;;;;;85.55;40.30;;;5.70;66.40;;;;;;6115302;23;20006;-56
2021/12/11 05:30:32;;;;;;;99.50;43.05;;;5.80;66.50;;;;;;6112304;23;20479;-51
2021/12/11 05:32:59;;;;;;;85.22;39.30;;;5.80;66.40;;;;;;6123172;23;19998;-55
2021/12/11 05:35:31;;;;;;;88.82;38.70;;;5.90;66.30;;;;;;6114569;23;20002;-52
2021/12/11 05:37:59;;;;;;;97.03;39.92;;;5.90;66.40;;;;;;6112369;23;20002;-55
2021/12/11 05:40:27;;;;;;;86.07;37.80;;;5.90;66.20;;;;;;6114914;23;20006;-53
2021/12/11 05:42:55;;;;;;;91.88;42.35;;;5.90;66.10;;;;;;6115038;23;20005;-53
2021/12/11 05:45:22;;;;;;;101.20;41.78;;;6.00;66.00;;;;;;6116379;23;20002;-55
2021/12/11 05:47:48;;;;;;;90.45;41.17;;;6.00;66.00;;;;;;6109986;23;20336;-53
2021/12/11 05:50:20;;;;;;;85.10;41.85;;;6.10;65.90;;;;;;6114715;23;20001;-52
2021/12/11 05:52:48;;;;;;;80.05;39.55;;;6.10;65.60;;;;;;6125514;23;20002;-55
2021/12/11 05:55:17;;;;;;;87.30;41.05;;;6.10;65.50;;;;;;6115460;23;20005;-54
2021/12/11 05:57:50;;;;;;;92.30;40.97;;;6.10;65.50;;;;;;6112157;23;20332;-53
2021/12/11 06:00:19;;;;;;;88.00;40.87;;;6.20;65.40;;;;;;6112851;23;20005;-54
2021/12/11 06:02:46;;;;;;;82.00;38.95;;;6.20;65.20;;;;;;6092333;23;20757;-52
2021/12/11 06:05:12;;;;;;;86.18;40.08;;;6.20;65.20;;;;;;6131960;23;20002;-53
2021/12/11 06:07:42;;;;;;;102.90;45.13;;;6.20;65.00;;;;;;6113491;23;20014;-54
2021/12/11 06:10:12;;;;;;;90.13;42.30;;;6.20;65.00;;;;;;6113149;23;20335;-53
2021/12/11 06:12:39;;;;;;;84.05;39.97;;;6.30;65.00;;;;;;6114268;23;20002;-54
2021/12/11 06:15:07;;;;;;;91.07;45.00;;;6.30;64.90;;;;;;6114356;23;20005;-53
2021/12/11 06:17:34;;;;;;;90.93;42.55;;;6.30;64.80;;;;;;6112411;23;20022;-55
2021/12/11 06:20:04;;;;;;;89.10;42.90;;;6.30;64.80;;;;;;6112466;23;20006;-51
2021/12/11 06:22:33;;;;;;;83.28;42.40;;;6.30;64.70;;;;;;6113836;23;20376;-52
2021/12/11 06:25:05;;;;;;;92.43;43.28;;;6.30;64.60;;;;;;6114294;23;20435;-52
2021/12/11 06:27:31;;;;;;;99.65;45.72;;;6.30;64.50;;;;;;6111710;23;20018;-55
2021/12/11 06:29:57;;;;;;;92.10;45.92;;;6.30;64.40;;;;;;6114898;23;20010;-54
2021/12/11 06:32:24;;;;;;;89.05;41.75;;;6.30;64.40;;;;;;6110150;23;20025;-54
2021/12/11 06:34:53;;;;;;;85.80;42.78;;;6.20;64.40;;;;;;6112544;23;20624;-54
2021/12/11 06:37:21;;;;;;;82.13;41.75;;;6.30;64.60;;;;;;6112059;23;20021;-56
2021/12/11 06:39:49;;;;;;;85.15;42.72;;;6.30;64.60;;;;;;6114293;23;20006;-53
2021/12/11 06:42:17;;;;;;;86.03;41.42;;;6.20;64.70;;;;;;6114670;23;20013;-53
2021/12/11 06:44:44;;;;;;;82.95;42.00;;;6.20;64.60;;;;;;6114907;23;19998;-53
2021/12/11 06:47:11;;;;;;;80.78;39.95;;;6.20;64.60;;;;;;6110240;23;20002;-53
2021/12/11 06:49:39;;;;;;;80.85;40.63;;;6.30;64.80;;;;;;6112410;23;20005;-57
2021/12/11 06:52:10;;;;;;;79.22;39.90;;;6.30;64.80;;;;;;6112525;23;20185;-54
2021/12/11 06:54:37;;;;;;;83.00;41.80;;;6.30;64.70;;;;;;6124097;23;20022;-57
2021/12/11 06:57:04;;;;;;;80.25;40.75;;;6.30;64.80;;;;;;6112233;23;20010;-52
2021/12/11 06:59:31;;;;;;;80.95;41.08;;;6.40;64.70;;;;;;6108578;23;20002;-54
2021/12/11 07:01:57;;;;;;;87.72;42.88;;;6.40;64.70;;;;;;6107917;23;20372;-55
2021/12/11 07:04:23;;;;;;;86.75;41.50;;;6.40;64.60;;;;;;6112985;23;19994;-55
2021/12/11 07:06:52;;;;;;;93.75;43.08;;;6.40;64.50;;;;;;6111877;23;20331;-53
2021/12/11 07:09:20;;;;;;;77.03;40.00;;;6.40;65.00;;;;;;6108895;23;20215;-55
2021/12/11 07:11:48;;;;;;;88.20;43.88;;;6.40;64.30;;;;;;6111850;23;20009;-55
2021/12/11 07:14:16;;;;;;;82.78;40.85;;;6.40;64.30;;;;;;6111206;23;20002;-52
2021/12/11 07:16:43;;;;;;;85.47;42.70;;;6.40;64.30;;;;;;6110518;23;20470;-51
2021/12/11 07:19:10;;;;;;;79.93;41.53;;;6.40;64.20;;;;;;6112269;23;20021;-55
2021/12/11 07:21:38;;;;;;;86.32;41.88;;;6.40;64.20;;;;;;6114570;23;20009;-53
2021/12/11 07:24:08;;;;;;;82.53;41.47;;;6.50;64.30;;;;;;6114391;23;19998;-54
2021/12/11 07:26:35;;;;;;;86.07;41.63;;;6.50;64.20;;;;;;6123211;23;20009;-52
2021/12/11 07:29:11;;;;;;;80.25;40.40;;;6.50;64.20;;;;;;6112065;23;20025;-55
2021/12/11 07:31:38;;;;;;;82.03;39.13;;;6.50;64.10;;;;;;6118665;23;20006;-53
2021/12/11 07:34:05;;;;;;;81.15;39.42;;;6.50;64.00;;;;;;6112195;23;19998;-56
2021/12/11 07:36:31;;;;;;;76.88;39.50;;;6.50;64.00;;;;;;6112042;23;19998;-52
2021/12/11 07:39:01;;;;;;;86.32;39.25;;;6.50;63.90;;;;;;6113686;23;20002;-52
2021/12/11 07:41:27;;;;;;;78.45;38.70;;;6.60;64.00;;;;;;6112914;23;20537;-54
2021/12/11 07:43:54;;;;;;;79.88;37.72;;;6.60;63.90;;;;;;6111408;23;20765;-52
2021/12/11 07:46:23;;;;;;;77.80;37.42;;;6.60;63.80;;;;;;6134666;23;20014;-51
2021/12/11 07:48:50;;;;;;;78.57;37.97;;;6.60;63.80;;;;;;6112740;23;20395;-53
2021/12/11 07:51:19;;;;;;;70.57;36.72;;;6.60;63.80;;;;;;6113535;23;20006;-50
2021/12/11 07:53:46;;;;;;;79.97;39.08;;;6.60;63.70;;;;;;6112338;23;20354;-51
2021/12/11 07:56:13;;;;;;;76.35;38.05;;;6.60;63.70;;;;;;6111771;23;20002;-55
2021/12/11 07:58:39;;;;;;;75.22;36.97;;;6.60;63.70;;;;;;6112957;23;20189;-53
2021/12/11 08:01:07;;;;;;;74.32;35.75;;;6.60;63.80;;;;;;6111542;23;20009;-54
2021/12/11 08:03:35;;;;;;;72.63;36.20;;;6.70;64.00;;;;;;6116192;23;20482;-55
2021/12/11 08:06:02;;;;;;;73.85;37.22;;;6.70;64.10;;;;;;6114763;23;20009;-55
2021/12/11 08:08:28;;;;;;;76.07;35.72;;;6.70;64.10;;;;;;6115659;23;20021;-54
2021/12/11 08:10:58;;;;;;;68.35;33.42;;;6.70;64.00;;;;;;6115534;23;20210;-53
2021/12/11 08:13:28;;;;;;;69.72;35.33;;;6.70;63.90;;;;;;6114980;23;20013;-56
2021/12/11 08:15:56;;;;;;;67.75;32.58;;;6.70;63.90;;;;;;6114345;23;20017;-55
2021/12/11 08:18:25;;;;;;;69.20;31.75;;;6.80;63.70;;;;;;6113978;23;20005;-54
2021/12/11 08:20:52;;;;;;;63.60;31.65;;;6.80;63.60;;;;;;6115440;23;20320;-52
2021/12/11 08:23:19;;;;;;;66.75;29.40;;;6.80;63.50;;;;;;6115721;23;19998;-50
2021/12/11 08:25:48;;;;;;;54.97;28.85;;;6.80;63.20;;;;;;6114402;23;20017;-52
2021/12/11 08:28:18;;;;;;;61.03;28.23;;;6.90;63.00;;;;;;6113750;23;20002;-53
2021/12/11 08:30:47;;;;;;;57.13;27.00;;;6.90;62.90;;;;;;6109091;23;20428;-50
2021/12/11 08:33:14;;;;;;;61.20;27.40;;;6.90;62.70;;;;;;6110963;23;20013;-51
2021/12/11 08:35:41;;;;;;;52.67;26.00;;;6.90;62.60;;;;;;6112907;23;20882;-55
2021/12/11 08:38:08;;;;;;;50.50;24.20;;;6.90;62.40;;;;;;6113230;23;20379;-54
2021/12/11 08:40:39;;;;;;;49.13;24.33;;;7.00;62.10;;;;;;6113046;23;20005;-53
2021/12/11 08:43:08;;;;;;;57.72;25.23;;;7.00;62.60;;;;;;6125740;23;20006;-50
2021/12/11 08:45:46;;;;;;;52.08;24.88;;;7.00;61.70;;;;;;6115318;23;19998;-54
2021/12/11 08:48:16;;;;;;;50.97;25.17;;;7.00;61.70;;;;;;6122465;23;20455;-53
2021/12/11 08:50:44;;;;;;;54.42;25.95;;;7.00;61.70;;;;;;6114248;23;20475;-51
2021/12/11 08:53:11;;;;;;;52.55;24.80;;;7.00;61.80;;;;;;6114952;23;20010;-55
2021/12/11 08:55:43;;;;;;;48.80;24.02;;;7.10;61.90;;;;;;6113993;23;19998;-54
2021/12/11 08:58:13;;;;;;;46.13;22.58;;;7.10;61.70;;;;;;6122739;23;20013;-54
2021/12/11 09:00:54;;;;;;;50.63;23.20;;;7.10;61.80;;;;;;6114166;23;20380;-51
2021/12/11 09:03:33;;;;;;;47.22;24.20;;;7.10;61.60;;;;;;6114380;23;20412;-53
2021/12/11 09:06:11;;;;;;;47.25;24.55;;;7.20;61.30;;;;;;6122476;23;20002;-52
2021/12/11 09:08:43;;;;;;;49.50;25.80;;;7.20;61.40;;;;;;6117231;23;20029;-54
2021/12/11 09:11:13;;;;;;;49.53;23.27;;;7.30;61.50;;;;;;6122598;23;20483;-52
2021/12/11 09:13:53;;;;;;;52.42;24.48;;;7.30;61.20;;;;;;6110209;23;20343;-52
2021/12/11 09:16:29;;;;;;;50.55;24.38;;;7.30;61.00;;;;;;6123998;23;20021;-54
2021/12/11 09:19:19;;;;;;;43.67;23.95;;;7.40;61.10;;;;;;6123950;23;20427;-53
2021/12/11 09:22:06;;;;;;;44.80;22.95;;;7.40;60.70;;;;;;6116863;23;20006;-53
2021/12/11 09:24:40;;;;;;;47.25;24.30;;;7.50;60.70;;;;;;6124505;23;20315;-53
2021/12/11 09:27:16;;;;;;;46.60;23.63;;;7.50;60.60;;;;;;6111438;23;20013;-54
2021/12/11 09:29:56;;;;;;;41.00;21.33;;;7.50;60.60;;;;;;6122614;23;20009;-52
2021/12/11 09:32:34;;;;;;;42.30;22.10;;;7.60;60.50;;;;;;6120987;23;20022;-53
2021/12/11 09:35:06;;;;;;;45.50;23.05;;;7.60;60.50;;;;;;6124482;23;20454;-54
2021/12/11 09:37:33;;;;;;;52.90;25.80;;;7.60;60.30;;;;;;6122311;23;20013;-54
2021/12/11 09:40:04;;;;;;;48.53;25.42;;;7.70;60.40;;;;;;6112079;23;19998;-51
2021/12/11 09:42:30;;;;;;;46.08;23.63;;;7.70;60.30;;;;;;6124208;23;20391;-55
2021/12/11 09:45:01;;;;;;;49.13;24.98;;;7.70;60.40;;;;;;6115321;23;20432;-53
2021/12/11 09:47:34;;;;;;;46.75;23.52;;;7.80;60.50;;;;;;6111425;23;20014;-54
2021/12/11 09:50:17;;;;;;;40.25;21.33;;;7.80;60.60;;;;;;6108015;23;20017;-52
2021/12/11 09:52:46;;;;;;;44.95;21.90;;;7.80;60.50;;;;;;6119263;23;19997;-54
2021/12/11 09:55:29;;;;;;;47.83;22.20;;;7.90;60.60;;;;;;6112825;23;20005;-53
2021/12/11 09:58:00;;;;;;;40.83;21.20;;;7.90;60.30;;;;;;6123419;23;20435;-52
2021/12/11 10:00:43;;;;;;;43.75;22.27;;;7.90;60.20;;;;;;6123343;23;20451;-52
2021/12/11 10:03:11;;;;;;;42.30;21.93;;;8.00;60.10;;;;;;6112491;23;20010;-53
2021/12/11 10:05:49;;;;;;;45.55;20.65;;;8.00;60.00;;;;;;6112632;23;20005;-54
2021/12/11 10:08:32;;;;;;;45.72;22.17;;;8.00;59.90;;;;;;6114001;23;20025;-48
2021/12/11 10:11:15;;;;;;;38.90;21.33;;;8.00;59.90;;;;;;6122059;23;19997;-54
2021/12/11 10:13:43;;;;;;;44.00;22.77;;;8.00;59.80;;;;;;6137767;23;20009;-51
2021/12/11 10:16:10;;;;;;;49.17;22.35;;;8.10;59.80;;;;;;6111817;23;20005;-55
2021/12/11 10:18:37;;;;;;;42.80;21.80;;;8.10;59.80;;;;;;6110471;23;20006;-56
2021/12/11 10:21:18;;;;;;;47.25;22.83;;;8.10;59.80;;;;;;6114990;23;20102;-54
2021/12/11 10:23:48;;;;;;;49.00;22.77;;;8.10;59.70;;;;;;6124184;23;20002;-53
2021/12/11 10:26:18;;;;;;;39.90;20.08;;;8.10;59.60;;;;;;6112248;23;20006;-55
2021/12/11 10:28:49;;;;;;;43.78;22.35;;;8.10;59.60;;;;;;6114287;23;20446;-51
2021/12/11 10:31:29;;;;;;;39.45;21.13;;;8.10;59.70;;;;;;6112591;23;20059;-52
2021/12/11 10:34:01;;;;;;;42.92;21.58;;;8.10;59.80;;;;;;6122744;23;19999;-52
2021/12/11 10:36:32;;;;;;;41.90;21.42;;;8.10;59.90;;;;;;6123831;23;20037;-52
2021/12/11 10:39:02;;;;;;;41.20;21.48;;;8.10;59.90;;;;;;6122482;23;19994;-53
2021/12/11 10:41:28;;;;;;;35.80;19.38;;;8.00;59.80;;;;;;6112151;23;20006;-54
2021/12/11 10:44:09;;;;;;;41.33;20.30;;;8.10;59.90;;;;;;6114831;23;20450;-55
2021/12/11 10:46:47;;;;;;;38.15;18.70;;;8.10;59.90;;;;;;6121135;23;20420;-54
2021/12/11 10:49:15;;;;;;;40.88;20.38;;;8.00;59.80;;;;;;6122837;23;20002;-53
2021/12/11 10:51:46;;;;;;;41.72;21.10;;;8.10;59.90;;;;;;6111517;23;20010;-54
2021/12/11 10:54:16;;;;;;;42.42;20.67;;;8.10;59.90;;;;;;6124137;23;20005;-52
2021/12/11 10:56:43;;;;;;;45.75;19.90;;;8.10;59.90;;;;;;6113600;23;20013;-54
2021/12/11 10:59:20;;;;;;;37.88;19.50;;;8.00;59.80;;;;;;6113357;23;20002;-52
2021/12/11 11:02:00;;;;;;;33.83;19.05;;;8.10;59.90;;;;;;6120720;23;20386;-54
2021/12/11 11:04:35;;;;;;;39.45;19.15;;;8.10;60.00;;;;;;6124333;23;20006;-52
2021/12/11 11:07:02;;;;;;;35.22;19.17;;;8.00;59.90;;;;;;6110024;23;20470;-55
2021/12/11 11:09:29;;;;;;;37.60;19.23;;;8.00;60.00;;;;;;6113643;23;20411;-56
2021/12/11 11:12:00;;;;;;;36.33;19.05;;;8.00;60.00;;;;;;6110766;23;20006;-52
2021/12/11 11:14:30;;;;;;;31.88;18.02;;;8.00;60.00;;;;;;6113633;23;20009;-53
2021/12/11 11:17:01;;;;;;;32.85;17.38;;;8.00;60.00;;;;;;6110358;23;20006;-55
2021/12/11 11:19:29;;;;;;;29.52;17.65;;;8.00;60.00;;;;;;6120884;23;20002;-55
2021/12/11 11:22:00;;;;;;;33.75;17.75;;;8.10;60.10;;;;;;6109713;23;20012;-54
2021/12/11 11:24:30;;;;;;;34.78;18.15;;;8.10;60.20;;;;;;6114888;23;20006;-55
2021/12/11 11:26:58;;;;;;;29.48;16.42;;;8.10;60.20;;;;;;6112379;23;20025;-56
2021/12/11 11:29:26;;;;;;;34.92;17.17;;;8.10;60.40;;;;;;6112251;23;20170;-51
2021/12/11 11:31:56;;;;;;;38.10;17.85;;;8.10;60.50;;;;;;6112381;23;20009;-56
2021/12/11 11:34:26;;;;;;;33.08;16.88;;;8.10;60.60;;;;;;6114951;23;20316;-53
2021/12/11 11:36:55;;;;;;;32.78;17.02;;;8.10;60.60;;;;;;6117558;23;20351;-52
2021/12/11 11:39:22;;;;;;;32.20;17.63;;;8.10;60.60;;;;;;6115646;23;20002;-53
2021/12/11 11:41:56;;;;;;;34.47;18.52;;;8.10;60.70;;;;;;6115857;23;19998;-53
2021/12/11 11:44:26;;;;;;;30.92;15.90;;;8.10;60.70;;;;;;6126670;23;20523;-50
2021/12/11 11:46:55;;;;;;;31.75;16.00;;;8.20;60.80;;;;;;6115210;23;20006;-54
2021/12/11 11:49:22;;;;;;;36.78;18.00;;;8.20;60.80;;;;;;6112378;23;19998;-51
2021/12/11 11:52:05;;;;;;;33.58;17.73;;;8.20;60.80;;;;;;6108239;23;20356;-56
2021/12/11 11:54:32;;;;;;;34.00;18.83;;;8.20;60.90;;;;;;6122000;23;20025;-55
2021/12/11 11:57:16;;;;;;;30.77;16.95;;;8.20;60.90;;;;;;6116363;23;20287;-53
2021/12/11 11:59:43;;;;;;;38.22;17.40;;;8.20;60.90;;;;;;6088718;23;20017;-51
2021/12/11 12:02:16;;;;;;;30.42;16.17;;;8.20;61.00;;;;;;6114346;23;20425;-52
2021/12/11 12:04:43;;;;;;;33.42;16.40;;;8.20;61.00;;;;;;6115703;23;20436;-50
2021/12/11 12:07:10;;;;;;;26.73;15.48;;;8.20;61.00;;;;;;6114558;23;20006;-53
2021/12/11 12:09:44;;;;;;;29.90;16.65;;;8.20;61.10;;;;;;6125812;23;20006;-54
2021/12/11 12:12:13;;;;;;;33.47;15.85;;;8.30;61.20;;;;;;6114192;23;20013;-54
2021/12/11 12:14:41;;;;;;;27.85;15.20;;;8.30;61.20;;;;;;6114962;23;20014;-50
2021/12/11 12:17:11;;;;;;;28.42;14.52;;;8.30;61.30;;;;;;6115256;23;20335;-53
2021/12/11 12:19:37;;;;;;;28.75;13.43;;;8.30;61.30;;;;;;6116203;23;19998;-52
2021/12/11 12:22:06;;;;;;;26.95;13.45;;;8.30;61.30;;;;;;6117032;23;20002;-52
2021/12/11 12:24:35;;;;;;;25.90;12.68;;;8.30;61.40;;;;;;6114609;23;20376;-53
2021/12/11 12:27:05;;;;;;;25.85;13.25;;;8.30;61.40;;;;;;6114476;23;20006;-56
2021/12/11 12:29:34;;;;;;;27.25;13.43;;;8.30;61.40;;;;;;6114008;23;20006;-51
2021/12/11 12:32:08;;;;;;;26.13;13.70;;;8.30;61.40;;;;;;6113736;23;20197;-54
2021/12/11 12:34:35;;;;;;;23.77;13.13;;;8.30;61.50;;;;;;6126887;23;20001;-53
2021/12/11 12:37:02;;;;;;;32.65;14.60;;;8.30;61.50;;;;;;6116874;23;20021;-50
2021/12/11 12:39:37;;;;;;;33.72;14.43;;;8.30;61.50;;;;;;6116241;23;20002;-52
2021/12/11 12:42:24;;;;;;;28.23;13.60;;;8.30;61.60;;;;;;6126541;23;20005;-52
2021/12/11 12:44:58;;;;;;;25.70;13.35;;;8.30;61.70;;;;;;6126248;23;19994;-56
2021/12/11 12:47:34;;;;;;;27.30;12.52;;;8.30;61.70;;;;;;6123977;23;20013;-54
2021/12/11 12:50:04;;;;;;;27.65;13.57;;;8.30;61.80;;;;;;6125372;23;20005;-51
2021/12/11 12:52:34;;;;;;;21.65;11.25;;;8.40;61.80;;;;;;6115770;23;20017;-54
2021/12/11 12:55:05;;;;;;;22.60;12.60;;;8.40;61.90;;;;;;6116091;23;20001;-53
2021/12/11 12:57:37;;;;;;;42.63;13.80;;;8.40;62.00;;;;;;6116206;23;20010;-54
2021/12/11 13:00:03;;;;;;;23.55;12.23;;;8.40;62.10;;;;;;6125651;23;20001;-53
2021/12/11 13:02:31;;;;;;;23.27;11.43;;;8.40;62.20;;;;;;6114520;23;20021;-53
2021/12/11 13:05:15;;;;;;;30.85;14.50;;;8.40;62.40;;;;;;6116171;23;20002;-53
2021/12/11 13:07:44;;;;;;;22.90;10.10;;;8.40;62.80;;;;;;6116201;23;20014;-56
2021/12/11 13:10:18;;;;;;;24.63;9.65;;;8.50;62.90;;;;;;6115612;23;20310;-55